Time;durP1;ratioP1;P1;durP2;ratioP2;P2;SDS_P1;SDS_P2;PMS_P1;PMS_P2;Temp;Humidity;BMP_temperature;BMP_pressure;BME280_temperature;BME280_humidity;BME280_pressure;Samples;Min_cycle;Max_cycle;Signal;HPM_P1;HPM_P2
2023/09/21 00:04:22;;;;;;;2.75;0.80;;;;;;;17.01;63.83;99291.56;10428428;28;20045;-57
2023/09/21 00:09:24;;;;;;;2.03;1.27;;;;;;;16.94;64.00;99290.91;10430458;28;20523;-57
2023/09/21 00:14:25;;;;;;;2.20;0.80;;;;;;;16.90;64.00;99292.44;10428213;28;20065;-58
2023/09/21 00:19:26;;;;;;;2.45;0.80;;;;;;;16.85;63.74;99273.34;10424142;28;20038;-58
2023/09/21 00:24:30;;;;;;;2.47;1.35;;;;;;;16.79;63.91;99285.97;10420332;28;20041;-58
2023/09/21 00:29:31;;;;;;;2.53;0.82;;;;;;;16.76;64.11;99280.19;10426586;28;20060;-58
2023/09/21 00:34:34;;;;;;;4.25;0.80;;;;;;;16.64;64.39;99272.13;10424301;28;20068;-58
2023/09/21 00:39:36;;;;;;;3.30;1.00;;;;;;;16.61;64.84;99265.28;10428132;28;20044;-57
2023/09/21 00:44:37;;;;;;;2.45;0.82;;;;;;;16.57;64.66;99263.31;10420796;28;20568;-58
2023/09/21 00:49:41;;;;;;;4.20;1.13;;;;;;;16.53;64.62;99260.25;10425308;28;20137;-58
2023/09/21 00:54:43;;;;;;;3.35;1.00;;;;;;;16.46;64.94;99257.66;10426146;28;20045;-58
2023/09/21 00:59:45;;;;;;;2.17;1.00;;;;;;;16.44;64.87;99259.81;10416927;28;20054;-57
2023/09/21 01:04:47;;;;;;;1.90;0.82;;;;;;;16.40;64.69;99258.63;10427110;28;20045;-57
2023/09/21 01:09:50;;;;;;;2.72;0.80;;;;;;;16.33;65.13;99254.41;10427232;28;20053;-57
2023/09/21 01:15:05;;;;;;;3.63;0.93;;;;;;;16.12;65.32;99247.78;10420960;28;20140;-57
2023/09/21 01:20:54;;;;;;;3.72;0.80;;;;;;;16.00;65.62;99237.78;10415498;28;20053;-57
2023/09/21 01:25:33;;;;;;;4.40;1.10;;;;;;;15.99;65.64;99241.53;10413826;28;20042;-57
2023/09/21 01:30:36;;;;;;;1.98;1.10;;;;;;;15.95;65.65;99239.53;10431900;28;20053;-57
2023/09/21 01:35:38;;;;;;;3.22;1.02;;;;;;;15.98;65.65;99242.59;10417576;28;20506;-56
2023/09/21 01:40:42;;;;;;;2.85;1.00;;;;;;;16.00;65.95;99237.78;10424225;28;20064;-56
2023/09/21 01:45:48;;;;;;;2.22;0.80;;;;;;;15.98;66.03;99226.34;10421514;28;20049;-56
2023/09/21 01:50:51;;;;;;;3.05;0.93;;;;;;;15.97;65.63;99226.56;10417781;28;20048;-56
2023/09/21 01:55:52;;;;;;;2.75;1.08;;;;;;;15.92;65.74;99232.72;10425341;28;20045;-56
2023/09/21 02:00:54;;;;;;;4.40;1.15;;;;;;;15.81;65.99;99228.13;10423216;28;20052;-56
2023/09/21 02:05:59;;;;;;;3.42;1.05;;;;;;;15.81;65.81;99222.72;10420573;28;20045;-57
2023/09/21 02:11:00;;;;;;;3.08;0.90;;;;;;;15.82;65.88;99206.22;10420723;28;20052;-57
2023/09/21 02:16:02;;;;;;;4.18;0.90;;;;;;;15.82;66.03;99213.53;10430198;28;20623;-56
2023/09/21 02:21:07;;;;;;;2.83;0.93;;;;;;;15.80;65.93;99213.78;10431740;28;20050;-56
2023/09/21 02:26:09;;;;;;;3.80;1.17;;;;;;;15.82;65.89;99208.13;10430045;28;20053;-56
2023/09/21 02:31:11;;;;;;;3.40;1.45;;;;;;;15.81;65.90;99206.47;10428965;28;20045;-56
2023/09/21 02:36:19;;;;;;;3.28;1.27;;;;;;;15.76;66.11;99203.66;10426176;28;20067;-56
2023/09/21 02:41:23;;;;;;;3.53;1.10;;;;;;;15.71;66.11;99200.78;10431098;28;20139;-58
2023/09/21 02:46:24;;;;;;;2.35;1.00;;;;;;;15.68;66.22;99196.69;10436310;28;20480;-57
2023/09/21 02:51:28;;;;;;;3.58;1.77;;;;;;;15.64;66.21;99182.78;10429073;28;20045;-57
2023/09/21 02:56:29;;;;;;;1.90;0.98;;;;;;;15.61;66.62;99185.16;10437594;28;20061;-58
2023/09/21 03:01:31;;;;;;;4.20;1.15;;;;;;;15.60;66.32;99170.78;10416115;28;20046;-57
2023/09/21 03:06:33;;;;;;;2.28;0.90;;;;;;;15.50;66.58;99173.28;10426954;28;20058;-57
2023/09/21 03:11:34;;;;;;;3.92;1.38;;;;;;;15.40;67.06;99164.91;10425295;28;20061;-57
2023/09/21 03:16:39;;;;;;;1.90;1.48;;;;;;;15.43;66.86;99172.56;10429629;28;20045;-57
2023/09/21 03:21:42;;;;;;;3.60;0.82;;;;;;;15.46;66.78;99172.06;10425042;28;20107;-57
2023/09/21 03:26:45;;;;;;;2.85;1.10;;;;;;;15.49;66.66;99160.78;10431711;28;20346;-57
2023/09/21 03:31:46;;;;;;;2.83;1.33;;;;;;;15.50;66.63;99148.06;10408752;28;20077;-57
2023/09/21 03:36:48;;;;;;;3.08;1.00;;;;;;;15.54;66.71;99150.06;10413205;28;20053;-58
2023/09/21 03:41:52;;;;;;;2.75;0.70;;;;;;;15.56;66.56;99141.69;10428151;28;20166;-57
2023/09/21 03:46:54;;;;;;;2.80;0.77;;;;;;;15.58;66.73;99145.81;10430320;28;20060;-57
2023/09/21 03:51:55;;;;;;;1.92;1.02;;;;;;;15.57;66.79;99136.03;10426960;28;20041;-56
2023/09/21 03:56:57;;;;;;;2.42;1.02;;;;;;;15.56;66.62;99123.56;10433750;28;20059;-56
2023/09/21 04:01:58;;;;;;;1.70;0.90;;;;;;;15.63;66.68;99123.41;10428583;28;20110;-57
2023/09/21 04:06:59;;;;;;;2.95;0.98;;;;;;;15.65;66.54;99113.97;10427599;28;20055;-57
2023/09/21 04:12:01;;;;;;;3.17;1.00;;;;;;;15.67;66.55;99109.16;10424001;28;20045;-57
2023/09/21 04:17:03;;;;;;;2.70;0.95;;;;;;;15.70;66.45;99098.88;10422779;28;20045;-56
2023/09/21 04:22:04;;;;;;;2.97;1.35;;;;;;;15.74;66.63;99095.50;10422644;28;20503;-56
2023/09/21 04:27:05;;;;;;;8.13;3.38;;;;;;;15.82;66.50;99089.69;10424357;28;20045;-58
2023/09/21 04:32:07;;;;;;;17.75;8.60;;;;;;;15.96;66.43;99089.41;10422675;28;20048;-57
2023/09/21 04:37:09;;;;;;;11.70;3.80;;;;;;;15.93;66.60;99082.56;10423823;28;20048;-57
2023/09/21 04:42:12;;;;;;;5.13;2.80;;;;;;;15.99;66.64;99067.22;10406672;28;20050;-56
2023/09/21 04:47:13;;;;;;;5.90;2.17;;;;;;;16.03;66.64;99063.81;10420286;28;20102;-57
2023/09/21 04:52:15;;;;;;;2.95;1.83;;;;;;;16.09;66.47;99061.19;10419407;28;20049;-57
2023/09/21 04:57:18;;;;;;;5.38;2.20;;;;;;;16.10;66.80;99054.72;10424041;28;20070;-58
2023/09/21 05:02:19;;;;;;;3.60;1.67;;;;;;;16.25;66.45;99060.38;10417848;28;20411;-56
2023/09/21 05:07:21;;;;;;;3.53;1.65;;;;;;;16.30;66.61;99062.38;10423901;28;20102;-56
2023/09/21 05:12:22;;;;;;;3.42;1.63;;;;;;;16.19;67.18;99070.34;10417707;28;20660;-58
2023/09/21 05:17:24;;;;;;;4.43;1.85;;;;;;;16.36;66.87;99077.66;10421313;28;20110;-59
2023/09/21 05:22:25;;;;;;;9.93;2.10;;;;;;;16.38;67.21;99091.78;10422970;28;20144;-59
2023/09/21 05:27:29;;;;;;;5.55;2.33;;;;;;;16.66;66.71;99085.47;10423639;28;20061;-59
2023/09/21 05:32:32;;;;;;;6.70;1.90;;;;;;;16.88;66.50;99079.31;10419615;28;20152;-59
2023/09/21 05:37:38;;;;;;;4.18;1.98;;;;;;;17.03;66.37;99074.94;10421677;28;20042;-58
2023/09/21 05:42:41;;;;;;;3.60;1.42;;;;;;;17.17;65.90;99083.53;10423635;28;20143;-59
2023/09/21 05:47:43;;;;;;;5.07;2.10;;;;;;;17.25;66.06;99079.56;10415796;28;20068;-59
2023/09/21 05:52:44;;;;;;;4.53;2.00;;;;;;;17.37;65.87;99071.31;10419973;28;20061;-59
2023/09/21 05:57:47;;;;;;;5.50;2.17;;;;;;;17.39;65.74;99063.72;10420641;28;20055;-59
2023/09/21 06:02:49;;;;;;;5.68;2.10;;;;;;;17.39;65.93;99061.00;10416714;28;20411;-59
2023/09/21 06:07:51;;;;;;;4.35;2.00;;;;;;;17.36;65.63;99078.63;10411597;28;20041;-59
2023/09/21 06:12:53;;;;;;;7.18;1.75;;;;;;;17.38;65.69;99070.25;10407395;28;20048;-57
2023/09/21 06:17:54;;;;;;;5.45;2.28;;;;;;;17.47;65.50;99076.03;10400953;28;20067;-57
2023/09/21 06:22:56;;;;;;;4.38;2.28;;;;;;;17.52;65.53;99087.81;10413428;28;20492;-59
2023/09/21 06:27:57;;;;;;;7.15;2.78;;;;;;;17.53;65.52;99080.47;10421155;28;20056;-57
2023/09/21 06:32:58;;;;;;;12.40;2.85;;;;;;;17.60;65.60;99079.19;10398661;28;20044;-57
2023/09/21 06:38:00;;;;;;;4.55;2.53;;;;;;;17.71;65.39;99077.41;10424304;28;20055;-58
2023/09/21 06:43:02;;;;;;;4.28;2.80;;;;;;;17.80;65.18;99086.78;10424995;28;20060;-57
2023/09/21 06:48:05;;;;;;;3.63;2.17;;;;;;;17.91;65.03;99074.16;10414829;28;20049;-57
2023/09/21 06:53:07;;;;;;;7.57;2.35;;;;;;;18.05;64.88;99069.13;10415873;28;20144;-59
2023/09/21 06:58:08;;;;;;;7.50;2.17;;;;;;;18.16;64.70;99067.31;10418724;28;20485;-57
2023/09/21 07:03:11;;;;;;;4.55;1.98;;;;;;;18.29;64.60;99052.50;10423269;28;20411;-57
2023/09/21 07:08:13;;;;;;;9.85;2.28;;;;;;;18.47;64.28;99054.81;10405211;28;20133;-58
2023/09/21 07:13:18;;;;;;;5.88;2.30;;;;;;;18.61;64.01;99063.34;10425949;28;20055;-59
2023/09/21 07:18:20;;;;;;;5.10;2.22;;;;;;;18.71;63.98;99057.16;10434111;28;20053;-57
2023/09/21 07:23:22;;;;;;;7.82;2.42;;;;;;;18.97;63.72;99048.09;10426869;28;20052;-57
2023/09/21 07:28:24;;;;;;;6.80;2.17;;;;;;;19.36;62.98;99052.41;10426189;28;20460;-58
2023/09/21 07:33:26;;;;;;;5.57;2.95;;;;;;;19.56;62.64;99052.47;10425017;28;20418;-58
2023/09/21 07:38:28;;;;;;;5.07;2.50;;;;;;;19.79;62.64;99043.03;10426013;28;20139;-58
2023/09/21 07:43:29;;;;;;;6.18;1.98;;;;;;;20.15;62.68;99036.81;10421776;28;20049;-58
2023/09/21 07:48:31;;;;;;;4.50;2.63;;;;;;;20.43;61.81;99030.00;10426796;28;20503;-58
2023/09/21 07:53:33;;;;;;;6.35;2.00;;;;;;;20.76;60.64;99036.03;10425505;28;20562;-58
2023/09/21 07:58:34;;;;;;;5.28;1.60;;;;;;;20.88;60.34;99042.00;10425699;28;20499;-58
2023/09/21 08:03:36;;;;;;;4.75;2.05;;;;;;;21.04;60.14;99031.84;10429907;28;20068;-59
2023/09/21 08:08:38;;;;;;;4.40;2.42;;;;;;;21.00;59.76;99038.97;10425760;28;20069;-59
2023/09/21 08:13:39;;;;;;;4.55;2.28;;;;;;;21.10;59.72;99035.38;10433326;28;20061;-60
2023/09/21 08:18:41;;;;;;;3.22;1.73;;;;;;;21.13;59.24;99032.94;10427475;28;20052;-59
2023/09/21 08:23:43;;;;;;;6.43;2.40;;;;;;;21.26;58.67;99033.41;10425699;28;20531;-58
2023/09/21 08:28:45;;;;;;;6.65;1.90;;;;;;;21.34;59.03;99022.72;10422515;28;20042;-60
2023/09/21 08:33:46;;;;;;;4.43;2.10;;;;;;;21.47;58.38;99015.88;10425865;28;20053;-60
2023/09/21 08:38:48;;;;;;;5.03;1.75;;;;;;;21.54;58.96;99023.75;10423060;28;20050;-60
2023/09/21 08:43:50;;;;;;;5.75;2.05;;;;;;;21.68;58.55;99007.53;10408363;28;20548;-57
2023/09/21 08:48:58;;;;;;;4.50;1.77;;;;;;;21.78;58.17;98996.53;10422357;28;20515;-57
2023/09/21 08:54:00;;;;;;;7.82;2.10;;;;;;;21.86;57.89;99004.16;10422793;28;20104;-58
2023/09/21 08:59:04;;;;;;;7.72;2.05;;;;;;;21.88;58.09;98991.03;10420187;28;20065;-58
2023/09/21 09:04:06;;;;;;;4.85;1.73;;;;;;;21.94;57.52;98984.41;10428516;28;20041;-59
2023/09/21 09:09:08;;;;;;;6.65;1.67;;;;;;;22.08;57.38;98987.31;10422896;28;20123;-59
2023/09/21 09:14:16;;;;;;;8.27;1.90;;;;;;;22.22;57.01;98983.94;10426814;28;20068;-58
2023/09/21 09:19:18;;;;;;;9.00;1.77;;;;;;;22.41;56.61;98968.44;10421472;28;20053;-58
2023/09/21 09:24:20;;;;;;;6.05;1.90;;;;;;;22.64;56.12;98980.53;10424249;28;20056;-58
2023/09/21 09:29:22;;;;;;;6.63;2.38;;;;;;;22.83;55.88;98968.81;10422332;28;20053;-58
2023/09/21 09:34:23;;;;;;;7.40;1.85;;;;;;;22.92;55.25;98967.09;10420729;28;20048;-58
2023/09/21 09:39:25;;;;;;;10.93;2.25;;;;;;;23.14;54.74;98940.00;10392672;28;20041;-59
2023/09/21 09:44:29;;;;;;;4.20;1.60;;;;;;;23.48;53.36;98928.00;10425969;28;20483;-60
2023/09/21 09:49:33;;;;;;;4.70;1.20;;;;;;;23.50;53.18;98924.94;10421023;28;20049;-60
2023/09/21 09:54:36;;;;;;;4.63;1.90;;;;;;;23.40;52.89;98942.41;10400669;28;20051;-59
2023/09/21 09:59:38;;;;;;;5.38;1.88;;;;;;;23.31;53.29;98925.78;10417814;28;20042;-59
2023/09/21 10:04:41;;;;;;;6.15;1.42;;;;;;;23.65;52.35;98910.22;10423792;28;20774;-59
2023/09/21 10:09:44;;;;;;;6.57;1.45;;;;;;;24.05;51.21;98902.44;10418893;28;20084;-58
2023/09/21 10:14:49;;;;;;;5.28;1.40;;;;;;;24.30;50.59;98895.69;10419549;28;20045;-59
2023/09/21 10:19:50;;;;;;;3.85;1.08;;;;;;;24.57;50.58;98897.69;10419573;28;20147;-58
2023/09/21 10:24:57;;;;;;;1.75;0.98;;;;;;;25.18;49.54;98883.78;10414261;28;20045;-58
2023/09/21 10:30:09;;;;;;;6.60;1.00;;;;;;;25.53;48.74;98882.19;10423476;28;20256;-59
2023/09/21 10:35:42;;;;;;;3.95;1.00;;;;;;;25.89;48.81;98881.31;10429361;28;20519;-59
2023/09/21 10:40:43;;;;;;;1.98;0.70;;;;;;;26.18;48.23;98875.34;10426260;28;20052;-57
2023/09/21 10:45:58;;;;;;;3.97;1.13;;;;;;;26.36;47.55;98862.47;10424972;28;20037;-57
2023/09/21 10:51:03;;;;;;;4.15;1.50;;;;;;;26.55;47.15;98855.91;10429905;28;20432;-55
2023/09/21 10:56:05;;;;;;;5.25;1.00;;;;;;;26.59;47.21;98862.44;10422791;28;20073;-56
2023/09/21 11:01:08;;;;;;;3.47;1.05;;;;;;;26.69;47.13;98856.63;10424967;28;20052;-57
2023/09/21 11:06:11;;;;;;;2.53;0.98;;;;;;;26.64;47.01;98854.00;10424416;28;20087;-57
2023/09/21 11:11:13;;;;;;;1.45;0.90;;;;;;;26.67;47.32;98851.44;10412179;28;20052;-57
2023/09/21 11:16:15;;;;;;;1.80;0.77;;;;;;;26.82;47.16;98844.66;10423554;28;20045;-57
2023/09/21 11:21:16;;;;;;;2.72;0.85;;;;;;;26.71;47.47;98840.56;10426563;28;20539;-57
2023/09/21 11:26:22;;;;;;;3.38;0.90;;;;;;;26.73;47.28;98832.81;10431033;28;20503;-57
2023/09/21 11:31:23;;;;;;;5.45;1.80;;;;;;;26.85;47.04;98824.72;10429506;28;20048;-56
2023/09/21 11:36:28;;;;;;;5.32;1.38;;;;;;;26.91;46.97;98825.38;10429070;28;20603;-56
2023/09/21 11:41:31;;;;;;;4.88;1.33;;;;;;;26.90;47.11;98815.50;10424922;28;20057;-57
2023/09/21 11:46:32;;;;;;;3.55;1.02;;;;;;;26.78;47.35;98805.09;10426707;28;20044;-56
2023/09/21 11:51:34;;;;;;;2.10;1.00;;;;;;;26.77;47.23;98805.41;10435266;28;20124;-56
2023/09/21 11:56:37;;;;;;;3.72;1.00;;;;;;;26.77;47.27;98788.84;10428121;28;20116;-56
2023/09/21 12:01:39;;;;;;;5.35;0.90;;;;;;;26.67;47.74;98785.25;10426410;28;20111;-56
2023/09/21 12:06:41;;;;;;;5.03;0.90;;;;;;;26.77;47.46;98780.59;10427335;28;20143;-56
2023/09/21 12:11:42;;;;;;;6.78;1.58;;;;;;;26.88;46.84;98771.69;10425974;28;20061;-56
2023/09/21 12:16:45;;;;;;;4.00;0.90;;;;;;;27.04;47.29;98766.50;10426969;28;20975;-55
2023/09/21 12:21:46;;;;;;;1.90;0.80;;;;;;;27.10;46.57;98762.44;10411535;28;20049;-56
2023/09/21 12:26:48;;;;;;;3.17;0.80;;;;;;;27.10;46.70;98756.09;10412901;28;20152;-58
2023/09/21 12:31:50;;;;;;;3.22;0.75;;;;;;;27.10;46.78;98750.59;10423993;28;20048;-58
2023/09/21 12:36:57;;;;;;;5.03;1.42;;;;;;;27.09;46.91;98740.69;10424517;28;20104;-56
2023/09/21 12:41:59;;;;;;;3.92;0.70;;;;;;;26.97;46.79;98738.56;10422331;28;20103;-56
2023/09/21 12:47:01;;;;;;;1.80;0.68;;;;;;;27.03;47.07;98730.94;10416055;28;20492;-56
2023/09/21 12:52:03;;;;;;;2.15;0.70;;;;;;;27.05;46.94;98723.16;10425953;28;20045;-56
2023/09/21 12:57:05;;;;;;;2.35;1.08;;;;;;;27.15;46.74;98700.75;10421374;28;20072;-56
2023/09/21 13:02:09;;;;;;;4.50;1.08;;;;;;;27.60;46.07;98697.59;10427111;28;20049;-56
2023/09/21 13:07:10;;;;;;;2.20;0.50;;;;;;;28.24;45.07;98688.41;10423485;28;20145;-55
2023/09/21 13:12:12;;;;;;;3.13;0.80;;;;;;;28.31;45.43;98685.09;10410857;28;20045;-56
2023/09/21 13:17:14;;;;;;;1.73;0.80;;;;;;;28.58;44.92;98669.97;10428098;28;20496;-58
2023/09/21 13:22:16;;;;;;;1.00;0.65;;;;;;;28.80;44.64;98659.72;10429959;28;20049;-57
2023/09/21 13:27:21;;;;;;;1.52;0.60;;;;;;;29.15;44.75;98653.84;10425868;28;20101;-56
2023/09/21 13:32:25;;;;;;;1.27;0.80;;;;;;;29.34;43.80;98634.75;10424607;28;20096;-56
2023/09/21 13:37:26;;;;;;;5.75;0.60;;;;;;;29.37;43.52;98634.09;10425829;28;20148;-57
2023/09/21 13:42:28;;;;;;;2.30;0.60;;;;;;;29.31;43.79;98627.16;10428061;28;20042;-56
2023/09/21 13:47:31;;;;;;;1.00;0.68;;;;;;;29.15;44.14;98628.94;10425570;28;20131;-56
2023/09/21 13:52:33;;;;;;;4.65;0.70;;;;;;;29.12;43.85;98616.63;10419462;28;20069;-57
2023/09/21 13:57:35;;;;;;;1.15;0.40;;;;;;;29.24;42.88;98607.53;10427491;28;20107;-57
2023/09/21 14:02:37;;;;;;;1.98;0.50;;;;;;;29.31;42.77;98587.59;10426004;28;20522;-56
2023/09/21 14:07:38;;;;;;;1.77;0.60;;;;;;;29.29;42.71;98563.03;10421959;28;20135;-57
2023/09/21 14:12:40;;;;;;;0.70;0.50;;;;;;;29.42;42.28;98570.19;10421279;28;20054;-57
2023/09/21 14:17:42;;;;;;;1.65;0.50;;;;;;;29.54;42.88;98563.03;10425297;28;20048;-56
2023/09/21 14:22:44;;;;;;;2.38;0.50;;;;;;;29.42;43.00;98555.53;10424444;28;20135;-58
2023/09/21 14:27:45;;;;;;;1.90;0.40;;;;;;;29.18;43.07;98551.59;10419436;28;20064;-57
2023/09/21 14:32:52;;;;;;;1.65;0.40;;;;;;;28.90;43.19;98551.41;10424814;28;20055;-58
2023/09/21 14:37:53;;;;;;;1.65;0.45;;;;;;;28.48;42.89;98543.19;10426358;28;20057;-57
2023/09/21 14:42:55;;;;;;;2.33;0.30;;;;;;;28.31;43.36;98541.38;10425029;28;20045;-56
2023/09/21 14:47:57;;;;;;;2.65;0.40;;;;;;;28.16;43.43;98539.22;10418484;28;20053;-56
2023/09/21 14:52:59;;;;;;;2.90;1.15;;;;;;;28.17;43.28;98538.09;10419803;28;20207;-57
2023/09/21 14:58:00;;;;;;;1.80;0.30;;;;;;;28.24;43.13;98538.38;10420567;28;20045;-57
2023/09/21 15:03:03;;;;;;;4.75;0.73;;;;;;;28.18;42.51;98539.69;10422620;28;20144;-55
2023/09/21 15:08:05;;;;;;;0.80;0.30;;;;;;;28.04;42.96;98527.00;10423188;28;20052;-56
2023/09/21 15:13:14;;;;;;;1.42;0.30;;;;;;;27.89;42.92;98519.28;10417775;28;20096;-56
2023/09/21 15:18:16;;;;;;;1.90;0.30;;;;;;;27.75;43.25;98519.53;10444689;28;20418;-55
2023/09/21 15:23:20;;;;;;;4.03;0.40;;;;;;;27.68;43.46;98508.19;10464582;28;20049;-57
2023/09/21 15:28:22;;;;;;;2.58;0.68;;;;;;;27.77;43.30;98505.41;10443956;28;20051;-56
2023/09/21 15:33:23;;;;;;;0.95;0.30;;;;;;;27.68;43.51;98497.16;10467238;28;20052;-57
2023/09/21 15:38:34;;;;;;;1.98;0.40;;;;;;;27.62;43.83;98495.75;10471078;28;20076;-56
2023/09/21 15:43:37;;;;;;;1.58;0.30;;;;;;;27.44;44.05;98493.09;10467345;28;20475;-57
2023/09/21 15:48:39;;;;;;;0.85;0.40;;;;;;;27.24;44.15;98485.56;10462921;28;20112;-57
2023/09/21 15:53:42;;;;;;;1.73;0.63;;;;;;;27.07;44.45;98501.06;10427629;28;20073;-56
2023/09/21 15:58:43;;;;;;;2.65;1.25;;;;;;;27.09;44.14;98493.25;10464061;28;20076;-56
2023/09/21 16:03:45;;;;;;;1.65;0.20;;;;;;;27.02;44.50;98492.94;10452497;28;20069;-56
2023/09/21 16:08:47;;;;;;;0.93;0.40;;;;;;;26.93;44.67;98483.91;10459572;28;20049;-56
2023/09/21 16:13:48;;;;;;;1.13;0.47;;;;;;;26.78;45.48;98460.44;10435240;28;20147;-57
2023/09/21 16:18:52;;;;;;;0.68;0.43;;;;;;;26.73;45.32;98452.34;10413199;28;20118;-57
2023/09/21 16:23:53;;;;;;;2.33;0.80;;;;;;;26.64;45.23;98448.81;10430687;28;20165;-57
2023/09/21 16:28:55;;;;;;;0.88;0.32;;;;;;;26.55;45.30;98435.03;10430061;28;20048;-57
2023/09/21 16:33:56;;;;;;;1.52;0.35;;;;;;;26.46;45.71;98437.00;10425536;28;20136;-56
2023/09/21 16:38:58;;;;;;;3.17;0.40;;;;;;;26.37;45.91;98434.28;10426129;28;20629;-56
2023/09/21 16:43:59;;;;;;;1.38;0.35;;;;;;;26.22;46.10;98424.56;10428631;28;20049;-57
2023/09/21 16:49:01;;;;;;;1.15;0.38;;;;;;;26.11;46.58;98426.06;10422687;28;20039;-56
2023/09/21 16:54:03;;;;;;;1.88;0.57;;;;;;;26.00;47.05;98417.31;10427745;28;20068;-58
2023/09/21 16:59:05;;;;;;;1.55;0.63;;;;;;;25.91;47.01;98430.31;10421491;28;20053;-58
2023/09/21 17:04:06;;;;;;;1.13;0.70;;;;;;;25.76;47.11;98419.75;10427457;28;23071;-56
2023/09/21 17:09:08;;;;;;;1.50;0.50;;;;;;;25.67;47.78;98408.72;10423440;28;20404;-56
2023/09/21 17:14:10;;;;;;;4.75;0.70;;;;;;;25.60;48.12;98409.22;10415557;28;20122;-57
2023/09/21 17:19:13;;;;;;;2.03;0.55;;;;;;;25.48;48.12;98417.31;10424256;28;20040;-56
2023/09/21 17:24:14;;;;;;;1.50;0.60;;;;;;;25.40;48.06;98423.63;10423170;28;20049;-57
2023/09/21 17:29:15;;;;;;;5.95;1.00;;;;;;;24.89;51.26;98417.66;10422999;28;20041;-57
2023/09/21 17:34:17;;;;;;;6.28;0.90;;;;;;;23.60;56.28;98421.97;10425165;28;20534;-57
2023/09/21 17:39:18;;;;;;;3.83;1.25;;;;;;;22.83;60.01;98421.66;10423414;28;20060;-57
2023/09/21 17:44:20;;;;;;;3.25;0.80;;;;;;;22.69;61.54;98429.06;10421583;28;20115;-57
2023/09/21 17:49:21;;;;;;;3.30;1.00;;;;;;;22.62;62.50;98425.91;10411783;28;20060;-56
2023/09/21 17:54:23;;;;;;;3.13;0.60;;;;;;;22.15;63.11;98418.47;10425130;28;20434;-57
2023/09/21 17:59:24;;;;;;;4.95;0.93;;;;;;;21.94;63.77;98425.44;10423994;28;20052;-56
2023/09/21 18:04:26;;;;;;;1.70;0.88;;;;;;;22.05;63.87;98435.09;10417623;28;20056;-56
2023/09/21 18:09:28;;;;;;;1.50;0.75;;;;;;;21.79;64.10;98511.28;10420314;28;20281;-55
2023/09/21 18:14:30;;;;;;;3.00;0.65;;;;;;;21.78;63.63;98506.91;10419603;28;20050;-56
2023/09/21 18:19:32;;;;;;;2.45;0.40;;;;;;;21.72;62.01;98527.22;10423168;28;20049;-56
2023/09/21 18:24:34;;;;;;;0.90;0.30;;;;;;;21.68;59.97;98534.38;10419066;28;20053;-55
2023/09/21 18:29:35;;;;;;;2.63;0.20;;;;;;;21.73;58.50;98539.81;10419702;28;20045;-54
2023/09/21 18:34:37;;;;;;;0.10;0.10;;;;;;;21.72;56.92;98565.50;10422978;28;20053;-56
2023/09/21 18:39:38;;;;;;;0.40;0.10;;;;;;;21.73;56.08;98559.75;10425332;28;20054;-55
2023/09/21 18:44:40;;;;;;;0.00;0.00;;;;;;;21.71;55.35;98559.22;10420061;28;20060;-55
2023/09/21 18:49:41;;;;;;;0.25;0.10;;;;;;;21.86;55.51;98563.69;10421067;28;20060;-55
2023/09/21 18:54:45;;;;;;;0.00;0.00;;;;;;;21.91;55.37;98577.28;10430525;28;20057;-55
2023/09/21 18:59:48;;;;;;;1.17;0.10;;;;;;;21.91;54.88;98579.22;10427994;28;20072;-54
2023/09/21 19:04:51;;;;;;;0.10;0.03;;;;;;;21.79;55.04;98591.41;10416638;28;20063;-55
2023/09/21 19:09:53;;;;;;;0.00;0.00;;;;;;;21.26;55.64;98643.38;10429661;28;20052;-56
2023/09/21 19:14:56;;;;;;;0.10;0.00;;;;;;;19.46;62.12;98668.16;10428935;28;20052;-57
2023/09/21 19:20:00;;;;;;;0.15;0.00;;;;;;;18.40;66.59;98693.16;10430300;28;20069;-58
2023/09/21 19:25:01;;;;;;;2.10;0.10;;;;;;;18.15;68.10;98699.34;10435703;28;20132;-57
2023/09/21 19:30:03;;;;;;;1.00;0.10;;;;;;;17.95;69.01;98710.94;10432835;28;20054;-59
2023/09/21 19:35:05;;;;;;;0.80;0.10;;;;;;;17.80;70.02;98736.13;10431816;28;20049;-58
2023/09/21 19:40:07;;;;;;;0.05;0.00;;;;;;;17.70;70.64;98746.94;10426999;28;20084;-58
2023/09/21 19:45:08;;;;;;;0.30;0.08;;;;;;;17.59;71.74;98770.47;10428638;28;20144;-58
2023/09/21 19:50:12;;;;;;;1.67;0.10;;;;;;;17.66;72.02;98737.66;10428012;28;20061;-59
2023/09/21 19:55:14;;;;;;;0.73;0.10;;;;;;;17.64;72.66;98707.22;10434668;28;20527;-58
2023/09/21 20:00:16;;;;;;;1.05;0.10;;;;;;;17.73;72.87;98689.34;10432428;28;20429;-58
2023/09/21 20:05:17;;;;;;;1.60;0.30;;;;;;;17.76;73.37;98693.41;10429838;28;20085;-60
2023/09/21 20:10:19;;;;;;;1.02;0.20;;;;;;;17.93;73.62;98677.78;10425775;28;20052;-59
2023/09/21 20:15:22;;;;;;;0.90;0.40;;;;;;;18.09;73.78;98685.97;10414395;28;20052;-59
2023/09/21 20:20:23;;;;;;;0.60;0.20;;;;;;;18.14;74.03;98715.91;10435750;28;20137;-59
2023/09/21 20:25:25;;;;;;;0.55;0.28;;;;;;;18.17;74.46;98739.88;10430036;28;20928;-60
2023/09/21 20:30:26;;;;;;;1.13;0.30;;;;;;;18.14;75.12;98751.28;10408820;28;20686;-59
2023/09/21 20:35:28;;;;;;;2.05;0.30;;;;;;;18.17;75.41;98758.91;10411185;28;20124;-57
2023/09/21 20:40:30;;;;;;;1.40;0.28;;;;;;;18.07;75.90;98775.16;10429331;28;20130;-58
2023/09/21 20:45:32;;;;;;;2.40;0.20;;;;;;;18.00;76.33;98759.91;10424664;28;20577;-57
2023/09/21 20:50:34;;;;;;;1.05;0.20;;;;;;;18.06;76.28;98744.44;10423581;28;20045;-59
2023/09/21 20:55:36;;;;;;;2.40;0.20;;;;;;;18.00;76.54;98746.31;10427761;28;20063;-58
2023/09/21 21:00:37;;;;;;;1.40;0.20;;;;;;;18.01;76.76;98744.44;10421631;28;20053;-58
2023/09/21 21:05:39;;;;;;;3.13;0.50;;;;;;;18.03;76.73;98770.25;10421636;28;20475;-58
2023/09/21 21:10:41;;;;;;;4.18;0.20;;;;;;;17.96;76.87;98780.53;10422544;28;20041;-57
2023/09/21 21:15:42;;;;;;;0.98;0.30;;;;;;;17.88;76.85;98772.88;10424999;28;20045;-58
2023/09/21 21:20:44;;;;;;;1.13;0.30;;;;;;;17.92;76.88;98786.78;10426497;28;20095;-58
2023/09/21 21:25:45;;;;;;;0.63;0.20;;;;;;;18.00;76.62;98784.38;10424450;28;20056;-58
2023/09/21 21:30:47;;;;;;;1.00;0.30;;;;;;;18.15;76.44;98761.88;10421653;28;20057;-59
2023/09/21 21:35:48;;;;;;;1.92;0.20;;;;;;;18.18;76.41;98774.13;10422951;28;20492;-58
2023/09/21 21:40:49;;;;;;;4.60;0.30;;;;;;;18.19;76.46;98784.75;10424639;28;20053;-59
2023/09/21 21:45:51;;;;;;;3.75;0.30;;;;;;;18.22;76.65;98783.41;10420295;28;20061;-59
2023/09/21 21:50:54;;;;;;;2.90;0.20;;;;;;;18.12;76.88;98800.47;10421525;28;20047;-58
2023/09/21 21:55:56;;;;;;;0.47;0.20;;;;;;;18.01;77.06;98790.66;10429269;28;20037;-58
2023/09/21 22:00:57;;;;;;;1.35;0.20;;;;;;;17.93;77.21;98800.13;10419780;28;20524;-58
2023/09/21 22:05:59;;;;;;;1.55;0.22;;;;;;;17.88;77.43;98808.22;10420798;28;20060;-58
2023/09/21 22:11:01;;;;;;;0.88;0.20;;;;;;;17.88;77.45;98789.19;10423749;28;20056;-58
2023/09/21 22:16:07;;;;;;;1.25;0.40;;;;;;;17.92;77.42;98752.25;10416859;28;20056;-58
2023/09/21 22:21:09;;;;;;;1.33;0.30;;;;;;;17.88;77.36;98739.47;10420754;28;20107;-59
2023/09/21 22:26:12;;;;;;;2.38;0.38;;;;;;;17.90;77.33;98748.97;10421831;28;20045;-59
2023/09/21 22:31:15;;;;;;;1.88;0.40;;;;;;;17.88;77.28;98774.78;10429177;28;20045;-57
2023/09/21 22:36:21;;;;;;;1.58;0.68;;;;;;;17.80;77.48;98776.06;10427727;28;20063;-60
2023/09/21 22:41:23;;;;;;;3.47;0.82;;;;;;;17.86;77.24;98766.91;10431442;28;20927;-58
2023/09/21 22:46:25;;;;;;;1.83;0.60;;;;;;;17.87;77.19;98779.41;10431699;28;20049;-57
2023/09/21 22:51:26;;;;;;;4.20;0.65;;;;;;;17.92;77.00;98786.78;10431083;28;20068;-59
2023/09/21 22:56:29;;;;;;;4.72;0.70;;;;;;;17.94;76.76;98788.16;10430685;28;20147;-58
2023/09/21 23:01:31;;;;;;;1.45;0.90;;;;;;;17.91;76.82;98799.56;10432929;28;20044;-58
2023/09/21 23:06:33;;;;;;;1.23;0.77;;;;;;;17.89;76.84;98801.72;10428176;28;20053;-58
2023/09/21 23:11:36;;;;;;;1.80;0.60;;;;;;;17.89;76.69;98803.59;10430274;28;20754;-58
2023/09/21 23:16:38;;;;;;;1.90;0.50;;;;;;;17.88;76.73;98810.13;10428301;28;20140;-59
2023/09/21 23:21:43;;;;;;;0.95;0.50;;;;;;;17.89;76.77;98822.63;10430349;28;20118;-58
2023/09/21 23:26:45;;;;;;;0.82;0.55;;;;;;;17.88;76.66;98829.97;10431071;28;20044;-58